sensor_id;sensor_type;location;lat;lon;timestamp;P1;durP1;ratioP1;P2;durP2;ratioP2
42770;SDS011;28426;42.872;25.314;2023-08-17T00:00:43;11.27;;;6.28;;
42770;SDS011;28426;42.872;25.314;2023-08-17T00:03:16;8.30;;;6.15;;
42770;SDS011;28426;42.872;25.314;2023-08-17T00:05:48;9.97;;;6.13;;
42770;SDS011;28426;42.872;25.314;2023-08-17T00:08:19;9.85;;;6.32;;
42770;SDS011;28426;42.872;25.314;2023-08-17T00:10:50;8.85;;;5.93;;
42770;SDS011;28426;42.872;25.314;2023-08-17T00:13:21;10.70;;;6.32;;
42770;SDS011;28426;42.872;25.314;2023-08-17T00:15:52;9.88;;;6.03;;
42770;SDS011;28426;42.872;25.314;2023-08-17T00:18:25;10.32;;;6.10;;
42770;SDS011;28426;42.872;25.314;2023-08-17T00:20:56;8.98;;;6.25;;
42770;SDS011;28426;42.872;25.314;2023-08-17T00:23:27;8.93;;;6.07;;
42770;SDS011;28426;42.872;25.314;2023-08-17T00:25:58;7.43;;;5.82;;
42770;SDS011;28426;42.872;25.314;2023-08-17T00:28:29;9.00;;;5.97;;
42770;SDS011;28426;42.872;25.314;2023-08-17T00:31:00;9.57;;;6.15;;
42770;SDS011;28426;42.872;25.314;2023-08-17T00:33:34;7.60;;;6.18;;
42770;SDS011;28426;42.872;25.314;2023-08-17T00:36:07;9.90;;;5.93;;
42770;SDS011;28426;42.872;25.314;2023-08-17T00:38:38;11.43;;;6.40;;
42770;SDS011;28426;42.872;25.314;2023-08-17T00:41:09;11.05;;;6.38;;
42770;SDS011;28426;42.872;25.314;2023-08-17T00:43:42;9.38;;;6.18;;
42770;SDS011;28426;42.872;25.314;2023-08-17T00:46:13;10.13;;;6.60;;
42770;SDS011;28426;42.872;25.314;2023-08-17T00:48:47;9.75;;;6.50;;
42770;SDS011;28426;42.872;25.314;2023-08-17T00:51:18;8.00;;;6.20;;
42770;SDS011;28426;42.872;25.314;2023-08-17T00:53:50;10.52;;;6.38;;
42770;SDS011;28426;42.872;25.314;2023-08-17T00:56:21;8.15;;;6.13;;
42770;SDS011;28426;42.872;25.314;2023-08-17T00:58:52;7.47;;;6.07;;
42770;SDS011;28426;42.872;25.314;2023-08-17T01:01:24;8.00;;;6.05;;
42770;SDS011;28426;42.872;25.314;2023-08-17T01:03:57;8.50;;;5.88;;
42770;SDS011;28426;42.872;25.314;2023-08-17T01:06:28;10.45;;;6.30;;
42770;SDS011;28426;42.872;25.314;2023-08-17T01:08:59;12.05;;;6.07;;
42770;SDS011;28426;42.872;25.314;2023-08-17T01:11:32;8.55;;;5.55;;
42770;SDS011;28426;42.872;25.314;2023-08-17T01:14:09;8.65;;;5.72;;
42770;SDS011;28426;42.872;25.314;2023-08-17T01:16:46;10.25;;;6.10;;
42770;SDS011;28426;42.872;25.314;2023-08-17T01:19:24;8.68;;;5.82;;
42770;SDS011;28426;42.872;25.314;2023-08-17T01:21:57;9.23;;;5.97;;
42770;SDS011;28426;42.872;25.314;2023-08-17T01:24:36;9.90;;;5.65;;
42770;SDS011;28426;42.872;25.314;2023-08-17T01:27:07;9.70;;;6.10;;
42770;SDS011;28426;42.872;25.314;2023-08-17T01:29:39;9.93;;;5.90;;
42770;SDS011;28426;42.872;25.314;2023-08-17T01:32:12;9.07;;;6.20;;
42770;SDS011;28426;42.872;25.314;2023-08-17T01:34:47;10.68;;;6.25;;
42770;SDS011;28426;42.872;25.314;2023-08-17T01:37:25;11.20;;;6.18;;
42770;SDS011;28426;42.872;25.314;2023-08-17T01:40:03;10.02;;;5.88;;
42770;SDS011;28426;42.872;25.314;2023-08-17T01:42:35;11.73;;;6.55;;
42770;SDS011;28426;42.872;25.314;2023-08-17T01:45:08;12.10;;;6.25;;
42770;SDS011;28426;42.872;25.314;2023-08-17T01:47:43;10.02;;;5.90;;
42770;SDS011;28426;42.872;25.314;2023-08-17T01:50:14;9.57;;;5.72;;
42770;SDS011;28426;42.872;25.314;2023-08-17T01:52:45;8.20;;;5.78;;
42770;SDS011;28426;42.872;25.314;2023-08-17T01:55:20;10.15;;;5.80;;
42770;SDS011;28426;42.872;25.314;2023-08-17T01:57:52;7.85;;;5.90;;
42770;SDS011;28426;42.872;25.314;2023-08-17T02:00:23;9.45;;;5.85;;
42770;SDS011;28426;42.872;25.314;2023-08-17T02:02:54;11.20;;;6.18;;
42770;SDS011;28426;42.872;25.314;2023-08-17T02:05:25;8.85;;;6.10;;
42770;SDS011;28426;42.872;25.314;2023-08-17T02:07:56;10.85;;;5.60;;
42770;SDS011;28426;42.872;25.314;2023-08-17T02:10:30;11.85;;;5.85;;
42770;SDS011;28426;42.872;25.314;2023-08-17T02:13:01;8.32;;;5.65;;
42770;SDS011;28426;42.872;25.314;2023-08-17T02:15:44;8.50;;;5.78;;
42770;SDS011;28426;42.872;25.314;2023-08-17T02:18:36;7.45;;;5.45;;
42770;SDS011;28426;42.872;25.314;2023-08-17T02:21:08;10.07;;;5.50;;
42770;SDS011;28426;42.872;25.314;2023-08-17T02:23:39;9.45;;;5.25;;
42770;SDS011;28426;42.872;25.314;2023-08-17T02:26:13;8.32;;;5.53;;
42770;SDS011;28426;42.872;25.314;2023-08-17T02:28:43;8.75;;;6.00;;
42770;SDS011;28426;42.872;25.314;2023-08-17T02:31:14;12.85;;;6.03;;
42770;SDS011;28426;42.872;25.314;2023-08-17T02:33:45;8.52;;;5.60;;
42770;SDS011;28426;42.872;25.314;2023-08-17T02:36:16;7.82;;;5.60;;
42770;SDS011;28426;42.872;25.314;2023-08-17T02:38:47;8.85;;;5.75;;
42770;SDS011;28426;42.872;25.314;2023-08-17T02:41:20;8.77;;;5.70;;
42770;SDS011;28426;42.872;25.314;2023-08-17T02:43:52;9.85;;;6.07;;
42770;SDS011;28426;42.872;25.314;2023-08-17T02:46:23;11.05;;;5.68;;
42770;SDS011;28426;42.872;25.314;2023-08-17T02:48:54;8.02;;;6.00;;
42770;SDS011;28426;42.872;25.314;2023-08-17T02:51:25;11.05;;;6.70;;
42770;SDS011;28426;42.872;25.314;2023-08-17T02:53:56;10.93;;;6.13;;
42770;SDS011;28426;42.872;25.314;2023-08-17T02:56:29;12.73;;;5.78;;
42770;SDS011;28426;42.872;25.314;2023-08-17T02:59:00;8.20;;;5.65;;
42770;SDS011;28426;42.872;25.314;2023-08-17T03:01:31;6.68;;;5.30;;
42770;SDS011;28426;42.872;25.314;2023-08-17T03:04:03;7.68;;;5.47;;
42770;SDS011;28426;42.872;25.314;2023-08-17T03:06:35;8.82;;;5.75;;
42770;SDS011;28426;42.872;25.314;2023-08-17T03:09:06;9.25;;;5.70;;
42770;SDS011;28426;42.872;25.314;2023-08-17T03:11:39;10.80;;;5.75;;
42770;SDS011;28426;42.872;25.314;2023-08-17T03:14:11;9.85;;;5.85;;
42770;SDS011;28426;42.872;25.314;2023-08-17T03:16:42;10.98;;;6.75;;
42770;SDS011;28426;42.872;25.314;2023-08-17T03:19:14;8.38;;;5.93;;
42770;SDS011;28426;42.872;25.314;2023-08-17T03:21:45;10.88;;;6.63;;
42770;SDS011;28426;42.872;25.314;2023-08-17T03:24:16;10.70;;;5.68;;
42770;SDS011;28426;42.872;25.314;2023-08-17T03:26:50;10.45;;;5.90;;
42770;SDS011;28426;42.872;25.314;2023-08-17T03:29:23;9.07;;;6.15;;
42770;SDS011;28426;42.872;25.314;2023-08-17T03:31:55;13.75;;;6.35;;
42770;SDS011;28426;42.872;25.314;2023-08-17T03:34:26;9.73;;;5.85;;
42770;SDS011;28426;42.872;25.314;2023-08-17T03:36:57;10.30;;;5.85;;
42770;SDS011;28426;42.872;25.314;2023-08-17T03:39:29;10.05;;;5.85;;
42770;SDS011;28426;42.872;25.314;2023-08-17T03:42:02;10.57;;;6.22;;
42770;SDS011;28426;42.872;25.314;2023-08-17T03:44:34;10.88;;;5.72;;
42770;SDS011;28426;42.872;25.314;2023-08-17T03:47:05;9.23;;;5.55;;
42770;SDS011;28426;42.872;25.314;2023-08-17T03:49:36;12.85;;;5.45;;
42770;SDS011;28426;42.872;25.314;2023-08-17T03:52:07;9.38;;;5.82;;
42770;SDS011;28426;42.872;25.314;2023-08-17T03:54:37;13.27;;;6.85;;
42770;SDS011;28426;42.872;25.314;2023-08-17T03:57:11;11.25;;;5.72;;
42770;SDS011;28426;42.872;25.314;2023-08-17T03:59:42;9.65;;;5.70;;
42770;SDS011;28426;42.872;25.314;2023-08-17T04:02:13;15.07;;;6.43;;
42770;SDS011;28426;42.872;25.314;2023-08-17T04:04:44;18.17;;;6.38;;
42770;SDS011;28426;42.872;25.314;2023-08-17T04:07:20;7.78;;;5.70;;
42770;SDS011;28426;42.872;25.314;2023-08-17T04:09:54;9.02;;;5.72;;
42770;SDS011;28426;42.872;25.314;2023-08-17T04:12:27;9.02;;;5.70;;
42770;SDS011;28426;42.872;25.314;2023-08-17T04:14:58;12.10;;;5.45;;
42770;SDS011;28426;42.872;25.314;2023-08-17T04:17:30;8.75;;;6.25;;
42770;SDS011;28426;42.872;25.314;2023-08-17T04:20:03;9.52;;;5.93;;
42770;SDS011;28426;42.872;25.314;2023-08-17T04:22:35;9.77;;;6.35;;
42770;SDS011;28426;42.872;25.314;2023-08-17T04:25:06;7.32;;;5.82;;
42770;SDS011;28426;42.872;25.314;2023-08-17T04:27:39;10.98;;;6.45;;
42770;SDS011;28426;42.872;25.314;2023-08-17T04:30:11;11.57;;;6.25;;
42770;SDS011;28426;42.872;25.314;2023-08-17T04:32:54;10.02;;;6.15;;
42770;SDS011;28426;42.872;25.314;2023-08-17T04:35:25;12.70;;;5.93;;
42770;SDS011;28426;42.872;25.314;2023-08-17T04:37:56;9.68;;;6.13;;
42770;SDS011;28426;42.872;25.314;2023-08-17T04:40:28;8.88;;;6.60;;
42770;SDS011;28426;42.872;25.314;2023-08-17T04:43:03;9.00;;;5.93;;
42770;SDS011;28426;42.872;25.314;2023-08-17T04:45:34;7.78;;;6.07;;
42770;SDS011;28426;42.872;25.314;2023-08-17T04:48:05;9.52;;;5.97;;
42770;SDS011;28426;42.872;25.314;2023-08-17T04:50:37;13.52;;;5.75;;
42770;SDS011;28426;42.872;25.314;2023-08-17T04:53:08;8.23;;;5.07;;
42770;SDS011;28426;42.872;25.314;2023-08-17T04:55:39;8.07;;;5.00;;
42770;SDS011;28426;42.872;25.314;2023-08-17T04:58:13;8.85;;;5.00;;
42770;SDS011;28426;42.872;25.314;2023-08-17T05:00:44;6.85;;;4.78;;
42770;SDS011;28426;42.872;25.314;2023-08-17T05:03:15;8.55;;;5.55;;
42770;SDS011;28426;42.872;25.314;2023-08-17T05:06:00;9.00;;;5.57;;
42770;SDS011;28426;42.872;25.314;2023-08-17T05:08:32;8.35;;;5.03;;
42770;SDS011;28426;42.872;25.314;2023-08-17T05:11:03;11.98;;;5.13;;
42770;SDS011;28426;42.872;25.314;2023-08-17T05:13:37;9.18;;;5.20;;
42770;SDS011;28426;42.872;25.314;2023-08-17T05:16:08;9.77;;;5.03;;
42770;SDS011;28426;42.872;25.314;2023-08-17T05:18:39;10.00;;;5.20;;
42770;SDS011;28426;42.872;25.314;2023-08-17T05:21:13;9.35;;;5.05;;
42770;SDS011;28426;42.872;25.314;2023-08-17T05:23:44;21.65;;;5.18;;
42770;SDS011;28426;42.872;25.314;2023-08-17T05:26:15;14.68;;;5.28;;
42770;SDS011;28426;42.872;25.314;2023-08-17T05:28:48;10.80;;;4.38;;
42770;SDS011;28426;42.872;25.314;2023-08-17T05:31:19;11.68;;;5.13;;
42770;SDS011;28426;42.872;25.314;2023-08-17T05:33:52;6.22;;;3.88;;
42770;SDS011;28426;42.872;25.314;2023-08-17T05:36:24;7.72;;;4.15;;
42770;SDS011;28426;42.872;25.314;2023-08-17T05:38:55;7.68;;;3.95;;
42770;SDS011;28426;42.872;25.314;2023-08-17T05:41:28;10.57;;;4.15;;
42770;SDS011;28426;42.872;25.314;2023-08-17T05:44:02;7.85;;;4.20;;
42770;SDS011;28426;42.872;25.314;2023-08-17T05:46:34;7.28;;;3.95;;
42770;SDS011;28426;42.872;25.314;2023-08-17T05:49:05;9.70;;;3.67;;
42770;SDS011;28426;42.872;25.314;2023-08-17T05:51:36;7.82;;;4.30;;
42770;SDS011;28426;42.872;25.314;2023-08-17T05:54:07;8.43;;;4.03;;
42770;SDS011;28426;42.872;25.314;2023-08-17T05:56:38;8.55;;;4.18;;
42770;SDS011;28426;42.872;25.314;2023-08-17T05:59:14;11.15;;;4.38;;
42770;SDS011;28426;42.872;25.314;2023-08-17T06:01:45;10.82;;;4.30;;
42770;SDS011;28426;42.872;25.314;2023-08-17T06:04:16;8.93;;;4.85;;
42770;SDS011;28426;42.872;25.314;2023-08-17T06:06:48;12.05;;;4.63;;
42770;SDS011;28426;42.872;25.314;2023-08-17T06:09:19;5.93;;;3.85;;
42770;SDS011;28426;42.872;25.314;2023-08-17T06:11:49;9.25;;;4.80;;
42770;SDS011;28426;42.872;25.314;2023-08-17T06:14:23;7.53;;;3.78;;
42770;SDS011;28426;42.872;25.314;2023-08-17T06:16:54;8.07;;;4.07;;
42770;SDS011;28426;42.872;25.314;2023-08-17T06:19:25;5.43;;;3.30;;
42770;SDS011;28426;42.872;25.314;2023-08-17T06:21:56;7.13;;;3.30;;
42770;SDS011;28426;42.872;25.314;2023-08-17T06:24:27;9.95;;;3.90;;
42770;SDS011;28426;42.872;25.314;2023-08-17T06:26:58;10.18;;;4.15;;
42770;SDS011;28426;42.872;25.314;2023-08-17T06:29:32;7.85;;;3.47;;
42770;SDS011;28426;42.872;25.314;2023-08-17T06:32:03;11.27;;;5.25;;
42770;SDS011;28426;42.872;25.314;2023-08-17T06:34:34;6.30;;;3.88;;
42770;SDS011;28426;42.872;25.314;2023-08-17T06:37:05;12.40;;;4.10;;
42770;SDS011;28426;42.872;25.314;2023-08-17T06:39:35;7.38;;;3.55;;
42770;SDS011;28426;42.872;25.314;2023-08-17T06:42:06;9.40;;;4.30;;
42770;SDS011;28426;42.872;25.314;2023-08-17T06:44:40;8.80;;;4.22;;
42770;SDS011;28426;42.872;25.314;2023-08-17T06:47:11;5.40;;;3.50;;
42770;SDS011;28426;42.872;25.314;2023-08-17T06:49:42;9.05;;;4.07;;
42770;SDS011;28426;42.872;25.314;2023-08-17T06:52:12;5.22;;;3.25;;
42770;SDS011;28426;42.872;25.314;2023-08-17T06:54:43;6.28;;;3.70;;
42770;SDS011;28426;42.872;25.314;2023-08-17T06:57:14;8.32;;;3.70;;
42770;SDS011;28426;42.872;25.314;2023-08-17T06:59:48;7.70;;;4.32;;
42770;SDS011;28426;42.872;25.314;2023-08-17T07:02:19;8.60;;;4.22;;
42770;SDS011;28426;42.872;25.314;2023-08-17T07:04:51;8.05;;;4.57;;
42770;SDS011;28426;42.872;25.314;2023-08-17T07:07:22;7.55;;;3.80;;
42770;SDS011;28426;42.872;25.314;2023-08-17T07:09:54;8.73;;;3.80;;
42770;SDS011;28426;42.872;25.314;2023-08-17T07:12:25;11.18;;;4.20;;
42770;SDS011;28426;42.872;25.314;2023-08-17T07:14:59;9.25;;;4.40;;
42770;SDS011;28426;42.872;25.314;2023-08-17T07:17:31;6.43;;;3.88;;
42770;SDS011;28426;42.872;25.314;2023-08-17T07:20:02;9.52;;;3.40;;
42770;SDS011;28426;42.872;25.314;2023-08-17T07:22:37;7.15;;;3.95;;
42770;SDS011;28426;42.872;25.314;2023-08-17T07:25:08;7.65;;;3.90;;
42770;SDS011;28426;42.872;25.314;2023-08-17T07:27:39;5.88;;;3.67;;
42770;SDS011;28426;42.872;25.314;2023-08-17T07:30:13;8.18;;;3.33;;
42770;SDS011;28426;42.872;25.314;2023-08-17T07:32:44;7.28;;;4.00;;
42770;SDS011;28426;42.872;25.314;2023-08-17T07:35:15;5.90;;;3.55;;
42770;SDS011;28426;42.872;25.314;2023-08-17T07:37:46;7.32;;;3.50;;
42770;SDS011;28426;42.872;25.314;2023-08-17T07:40:33;6.95;;;3.60;;
42770;SDS011;28426;42.872;25.314;2023-08-17T07:43:04;8.23;;;3.30;;
42770;SDS011;28426;42.872;25.314;2023-08-17T07:45:37;6.50;;;3.60;;
42770;SDS011;28426;42.872;25.314;2023-08-17T07:48:08;9.13;;;3.10;;
42770;SDS011;28426;42.872;25.314;2023-08-17T07:50:39;11.32;;;3.38;;
42770;SDS011;28426;42.872;25.314;2023-08-17T07:53:10;5.18;;;3.00;;
42770;SDS011;28426;42.872;25.314;2023-08-17T07:55:41;5.13;;;3.05;;
42770;SDS011;28426;42.872;25.314;2023-08-17T07:58:12;7.40;;;4.45;;
42770;SDS011;28426;42.872;25.314;2023-08-17T08:00:45;5.53;;;3.30;;
42770;SDS011;28426;42.872;25.314;2023-08-17T08:03:16;6.35;;;3.35;;
42770;SDS011;28426;42.872;25.314;2023-08-17T08:05:47;9.60;;;3.60;;
42770;SDS011;28426;42.872;25.314;2023-08-17T08:08:18;7.20;;;3.00;;
42770;SDS011;28426;42.872;25.314;2023-08-17T08:10:52;8.15;;;3.20;;
42770;SDS011;28426;42.872;25.314;2023-08-17T08:13:23;8.25;;;3.58;;
42770;SDS011;28426;42.872;25.314;2023-08-17T08:15:57;7.38;;;2.72;;
42770;SDS011;28426;42.872;25.314;2023-08-17T08:18:29;5.82;;;2.65;;
42770;SDS011;28426;42.872;25.314;2023-08-17T08:21:00;8.38;;;3.08;;
42770;SDS011;28426;42.872;25.314;2023-08-17T08:23:31;5.43;;;2.85;;
42770;SDS011;28426;42.872;25.314;2023-08-17T08:26:02;6.45;;;2.88;;
42770;SDS011;28426;42.872;25.314;2023-08-17T08:28:33;10.68;;;3.70;;
42770;SDS011;28426;42.872;25.314;2023-08-17T08:31:06;6.43;;;2.80;;
42770;SDS011;28426;42.872;25.314;2023-08-17T08:33:37;6.40;;;3.08;;
42770;SDS011;28426;42.872;25.314;2023-08-17T08:36:09;10.45;;;6.75;;
42770;SDS011;28426;42.872;25.314;2023-08-17T08:38:39;8.90;;;3.33;;
42770;SDS011;28426;42.872;25.314;2023-08-17T08:41:11;5.63;;;3.00;;
42770;SDS011;28426;42.872;25.314;2023-08-17T08:43:42;5.75;;;2.90;;
42770;SDS011;28426;42.872;25.314;2023-08-17T08:46:17;8.43;;;3.05;;
42770;SDS011;28426;42.872;25.314;2023-08-17T08:48:48;5.75;;;3.00;;
42770;SDS011;28426;42.872;25.314;2023-08-17T08:51:25;5.03;;;2.97;;
42770;SDS011;28426;42.872;25.314;2023-08-17T08:54:00;6.53;;;3.03;;
42770;SDS011;28426;42.872;25.314;2023-08-17T08:56:33;8.30;;;3.42;;
42770;SDS011;28426;42.872;25.314;2023-08-17T08:59:14;7.55;;;4.65;;
42770;SDS011;28426;42.872;25.314;2023-08-17T09:01:47;7.05;;;2.88;;
42770;SDS011;28426;42.872;25.314;2023-08-17T09:04:19;8.40;;;3.10;;
42770;SDS011;28426;42.872;25.314;2023-08-17T09:06:50;6.82;;;2.83;;
42770;SDS011;28426;42.872;25.314;2023-08-17T09:09:23;5.13;;;2.80;;
42770;SDS011;28426;42.872;25.314;2023-08-17T09:11:56;6.30;;;3.20;;
42770;SDS011;28426;42.872;25.314;2023-08-17T09:14:27;6.72;;;3.33;;
42770;SDS011;28426;42.872;25.314;2023-08-17T09:17:00;5.40;;;3.42;;
42770;SDS011;28426;42.872;25.314;2023-08-17T09:19:31;10.13;;;3.50;;
42770;SDS011;28426;42.872;25.314;2023-08-17T09:22:08;6.63;;;3.28;;
42770;SDS011;28426;42.872;25.314;2023-08-17T09:24:39;5.90;;;3.13;;
42770;SDS011;28426;42.872;25.314;2023-08-17T09:27:11;6.82;;;2.97;;
42770;SDS011;28426;42.872;25.314;2023-08-17T09:29:42;6.53;;;3.05;;
42770;SDS011;28426;42.872;25.314;2023-08-17T09:32:16;6.13;;;2.85;;
42770;SDS011;28426;42.872;25.314;2023-08-17T09:34:47;10.07;;;3.40;;
42770;SDS011;28426;42.872;25.314;2023-08-17T09:37:19;5.45;;;3.10;;
42770;SDS011;28426;42.872;25.314;2023-08-17T09:39:50;4.68;;;2.90;;
42770;SDS011;28426;42.872;25.314;2023-08-17T09:42:21;7.82;;;3.10;;
42770;SDS011;28426;42.872;25.314;2023-08-17T09:44:53;5.97;;;2.88;;
42770;SDS011;28426;42.872;25.314;2023-08-17T09:47:35;8.82;;;3.90;;
42770;SDS011;28426;42.872;25.314;2023-08-17T09:50:06;5.97;;;3.33;;
42770;SDS011;28426;42.872;25.314;2023-08-17T09:52:38;4.40;;;2.80;;
42770;SDS011;28426;42.872;25.314;2023-08-17T09:55:09;5.65;;;2.90;;
42770;SDS011;28426;42.872;25.314;2023-08-17T09:57:42;5.78;;;3.10;;
42770;SDS011;28426;42.872;25.314;2023-08-17T10:00:13;7.03;;;2.83;;
42770;SDS011;28426;42.872;25.314;2023-08-17T10:02:47;7.88;;;3.63;;
42770;SDS011;28426;42.872;25.314;2023-08-17T10:05:21;5.90;;;3.33;;
42770;SDS011;28426;42.872;25.314;2023-08-17T10:07:54;5.65;;;3.45;;
42770;SDS011;28426;42.872;25.314;2023-08-17T10:10:27;10.35;;;5.00;;
42770;SDS011;28426;42.872;25.314;2023-08-17T10:13:04;6.80;;;3.67;;
42770;SDS011;28426;42.872;25.314;2023-08-17T10:15:42;8.13;;;3.20;;
42770;SDS011;28426;42.872;25.314;2023-08-17T10:18:21;4.63;;;2.92;;
42770;SDS011;28426;42.872;25.314;2023-08-17T10:21:02;7.00;;;3.70;;
42770;SDS011;28426;42.872;25.314;2023-08-17T10:23:36;7.15;;;2.85;;
42770;SDS011;28426;42.872;25.314;2023-08-17T10:26:09;7.22;;;3.15;;
42770;SDS011;28426;42.872;25.314;2023-08-17T10:28:40;9.23;;;3.22;;
42770;SDS011;28426;42.872;25.314;2023-08-17T10:31:12;9.00;;;3.40;;
42770;SDS011;28426;42.872;25.314;2023-08-17T10:33:47;5.75;;;2.95;;
42770;SDS011;28426;42.872;25.314;2023-08-17T10:36:18;6.38;;;3.10;;
42770;SDS011;28426;42.872;25.314;2023-08-17T10:41:53;6.78;;;3.55;;
42770;SDS011;28426;42.872;25.314;2023-08-17T10:44:40;8.20;;;3.30;;
42770;SDS011;28426;42.872;25.314;2023-08-17T10:47:20;6.25;;;3.03;;
42770;SDS011;28426;42.872;25.314;2023-08-17T10:49:57;7.18;;;3.10;;
42770;SDS011;28426;42.872;25.314;2023-08-17T10:52:32;5.88;;;3.10;;
42770;SDS011;28426;42.872;25.314;2023-08-17T10:55:05;5.05;;;2.83;;
42770;SDS011;28426;42.872;25.314;2023-08-17T10:57:38;6.55;;;3.00;;
42770;SDS011;28426;42.872;25.314;2023-08-17T11:00:16;5.80;;;3.10;;
42770;SDS011;28426;42.872;25.314;2023-08-17T11:02:54;8.50;;;4.63;;
42770;SDS011;28426;42.872;25.314;2023-08-17T11:05:40;4.10;;;2.90;;
42770;SDS011;28426;42.872;25.314;2023-08-17T11:08:20;6.35;;;3.00;;
42770;SDS011;28426;42.872;25.314;2023-08-17T11:13:40;8.85;;;3.40;;
42770;SDS011;28426;42.872;25.314;2023-08-17T11:16:12;8.75;;;3.00;;
42770;SDS011;28426;42.872;25.314;2023-08-17T11:18:45;5.07;;;3.20;;
42770;SDS011;28426;42.872;25.314;2023-08-17T11:21:22;7.63;;;2.95;;
42770;SDS011;28426;42.872;25.314;2023-08-17T11:23:55;5.57;;;2.95;;
42770;SDS011;28426;42.872;25.314;2023-08-17T11:26:27;4.63;;;3.05;;
42770;SDS011;28426;42.872;25.314;2023-08-17T11:29:02;5.45;;;3.10;;
42770;SDS011;28426;42.872;25.314;2023-08-17T11:31:33;4.80;;;3.17;;
42770;SDS011;28426;42.872;25.314;2023-08-17T11:34:04;6.32;;;3.17;;
42770;SDS011;28426;42.872;25.314;2023-08-17T11:36:38;8.15;;;3.10;;
42770;SDS011;28426;42.872;25.314;2023-08-17T11:39:08;8.47;;;3.57;;
42770;SDS011;28426;42.872;25.314;2023-08-17T11:41:41;5.90;;;3.15;;
42770;SDS011;28426;42.872;25.314;2023-08-17T11:44:12;7.25;;;3.33;;
42770;SDS011;28426;42.872;25.314;2023-08-17T11:46:43;7.55;;;2.92;;
42770;SDS011;28426;42.872;25.314;2023-08-17T11:49:14;9.10;;;3.40;;
42770;SDS011;28426;42.872;25.314;2023-08-17T11:51:47;5.50;;;3.30;;
42770;SDS011;28426;42.872;25.314;2023-08-17T11:54:18;8.65;;;3.75;;
42770;SDS011;28426;42.872;25.314;2023-08-17T11:56:50;5.78;;;3.42;;
42770;SDS011;28426;42.872;25.314;2023-08-17T11:59:20;7.43;;;3.55;;
42770;SDS011;28426;42.872;25.314;2023-08-17T12:01:51;7.53;;;2.92;;
42770;SDS011;28426;42.872;25.314;2023-08-17T12:04:26;6.25;;;3.35;;
42770;SDS011;28426;42.872;25.314;2023-08-17T12:06:59;6.65;;;3.00;;
42770;SDS011;28426;42.872;25.314;2023-08-17T12:09:31;7.37;;;3.20;;
42770;SDS011;28426;42.872;25.314;2023-08-17T12:12:03;8.15;;;3.33;;
42770;SDS011;28426;42.872;25.314;2023-08-17T12:14:34;7.03;;;3.17;;
42770;SDS011;28426;42.872;25.314;2023-08-17T12:17:05;7.30;;;3.47;;
42770;SDS011;28426;42.872;25.314;2023-08-17T12:19:36;6.70;;;3.33;;
42770;SDS011;28426;42.872;25.314;2023-08-17T12:22:10;9.02;;;3.80;;
42770;SDS011;28426;42.872;25.314;2023-08-17T12:24:43;5.03;;;3.35;;
42770;SDS011;28426;42.872;25.314;2023-08-17T12:27:14;7.50;;;3.47;;
42770;SDS011;28426;42.872;25.314;2023-08-17T12:29:46;5.95;;;3.58;;
42770;SDS011;28426;42.872;25.314;2023-08-17T12:32:18;7.38;;;3.65;;
42770;SDS011;28426;42.872;25.314;2023-08-17T12:34:50;5.07;;;3.58;;
42770;SDS011;28426;42.872;25.314;2023-08-17T12:37:25;8.88;;;3.55;;
42770;SDS011;28426;42.872;25.314;2023-08-17T12:39:56;8.07;;;3.53;;
42770;SDS011;28426;42.872;25.314;2023-08-17T12:42:27;6.00;;;3.55;;
42770;SDS011;28426;42.872;25.314;2023-08-17T12:44:59;7.95;;;3.35;;
42770;SDS011;28426;42.872;25.314;2023-08-17T12:47:32;6.40;;;3.40;;
42770;SDS011;28426;42.872;25.314;2023-08-17T12:50:03;7.35;;;3.40;;
42770;SDS011;28426;42.872;25.314;2023-08-17T12:52:37;6.80;;;3.33;;
42770;SDS011;28426;42.872;25.314;2023-08-17T12:55:13;6.80;;;3.40;;
42770;SDS011;28426;42.872;25.314;2023-08-17T12:57:44;5.57;;;3.05;;
42770;SDS011;28426;42.872;25.314;2023-08-17T13:00:16;6.72;;;3.50;;
42770;SDS011;28426;42.872;25.314;2023-08-17T13:02:47;6.65;;;3.78;;
42770;SDS011;28426;42.872;25.314;2023-08-17T13:05:18;7.95;;;3.88;;
42770;SDS011;28426;42.872;25.314;2023-08-17T13:07:52;8.27;;;3.38;;
42770;SDS011;28426;42.872;25.314;2023-08-17T13:10:23;5.93;;;3.08;;
42770;SDS011;28426;42.872;25.314;2023-08-17T13:12:54;6.43;;;3.40;;
42770;SDS011;28426;42.872;25.314;2023-08-17T13:15:27;8.60;;;3.53;;
42770;SDS011;28426;42.872;25.314;2023-08-17T13:17:57;5.05;;;3.03;;
42770;SDS011;28426;42.872;25.314;2023-08-17T13:20:28;6.95;;;3.97;;
42770;SDS011;28426;42.872;25.314;2023-08-17T13:23:03;6.38;;;3.65;;
42770;SDS011;28426;42.872;25.314;2023-08-17T13:25:34;9.10;;;3.90;;
42770;SDS011;28426;42.872;25.314;2023-08-17T13:28:05;10.48;;;3.90;;
42770;SDS011;28426;42.872;25.314;2023-08-17T13:30:37;7.13;;;3.42;;
42770;SDS011;28426;42.872;25.314;2023-08-17T13:33:08;6.53;;;3.25;;
42770;SDS011;28426;42.872;25.314;2023-08-17T13:35:39;6.45;;;3.38;;
42770;SDS011;28426;42.872;25.314;2023-08-17T13:38:13;7.35;;;3.88;;
42770;SDS011;28426;42.872;25.314;2023-08-17T13:40:44;6.18;;;3.47;;
42770;SDS011;28426;42.872;25.314;2023-08-17T13:43:15;7.10;;;3.50;;
42770;SDS011;28426;42.872;25.314;2023-08-17T13:45:46;7.32;;;3.70;;
42770;SDS011;28426;42.872;25.314;2023-08-17T13:48:16;7.97;;;3.65;;
42770;SDS011;28426;42.872;25.314;2023-08-17T13:50:47;6.75;;;3.92;;
42770;SDS011;28426;42.872;25.314;2023-08-17T13:53:21;6.63;;;3.33;;
42770;SDS011;28426;42.872;25.314;2023-08-17T13:55:52;8.18;;;3.92;;
42770;SDS011;28426;42.872;25.314;2023-08-17T13:58:23;6.57;;;3.47;;
42770;SDS011;28426;42.872;25.314;2023-08-17T14:00:54;5.50;;;3.58;;
42770;SDS011;28426;42.872;25.314;2023-08-17T14:03:25;7.07;;;3.47;;
42770;SDS011;28426;42.872;25.314;2023-08-17T14:05:56;6.57;;;3.65;;
42770;SDS011;28426;42.872;25.314;2023-08-17T14:08:29;7.57;;;3.72;;
42770;SDS011;28426;42.872;25.314;2023-08-17T14:11:00;8.00;;;4.03;;
42770;SDS011;28426;42.872;25.314;2023-08-17T14:19:38;7.15;;;3.47;;
42770;SDS011;28426;42.872;25.314;2023-08-17T14:22:10;8.10;;;3.53;;
42770;SDS011;28426;42.872;25.314;2023-08-17T14:24:44;7.72;;;3.78;;
42770;SDS011;28426;42.872;25.314;2023-08-17T14:27:15;6.85;;;3.50;;
42770;SDS011;28426;42.872;25.314;2023-08-17T14:29:47;8.60;;;4.25;;
42770;SDS011;28426;42.872;25.314;2023-08-17T14:32:18;6.63;;;3.97;;
42770;SDS011;28426;42.872;25.314;2023-08-17T14:34:49;7.50;;;4.30;;
42770;SDS011;28426;42.872;25.314;2023-08-17T14:37:24;8.73;;;3.70;;
42770;SDS011;28426;42.872;25.314;2023-08-17T14:40:00;6.90;;;3.88;;
42770;SDS011;28426;42.872;25.314;2023-08-17T14:42:32;8.38;;;3.40;;
42770;SDS011;28426;42.872;25.314;2023-08-17T14:45:05;7.50;;;3.50;;
42770;SDS011;28426;42.872;25.314;2023-08-17T14:47:38;7.30;;;3.75;;
42770;SDS011;28426;42.872;25.314;2023-08-17T14:50:10;6.13;;;3.58;;
42770;SDS011;28426;42.872;25.314;2023-08-17T14:52:41;6.97;;;3.58;;
42770;SDS011;28426;42.872;25.314;2023-08-17T14:58:03;8.73;;;4.00;;
42770;SDS011;28426;42.872;25.314;2023-08-17T15:00:35;8.35;;;3.70;;
42770;SDS011;28426;42.872;25.314;2023-08-17T15:03:06;6.13;;;3.90;;
42770;SDS011;28426;42.872;25.314;2023-08-17T15:05:39;6.80;;;4.18;;
42770;SDS011;28426;42.872;25.314;2023-08-17T15:08:17;9.55;;;4.50;;
42770;SDS011;28426;42.872;25.314;2023-08-17T15:10:51;8.43;;;3.50;;
42770;SDS011;28426;42.872;25.314;2023-08-17T15:13:29;5.78;;;3.60;;
42770;SDS011;28426;42.872;25.314;2023-08-17T15:16:02;8.40;;;3.95;;